Seward, AK

5:35 PM AKST on December 24, 2014 (GMT -0900)
Seward | Change Station
CLOSE
Current Station
Airport
Location: Seward,
Elevation: 20 ft
Nearby Weather Stations

Elev 20 ft 60.13 °N, 149.42 °W | Updated 42 minutes ago

Overcast
Overcast
33 °F
Feels Like 30 °F
N
4
Wind Variable Wind from West

Today
High -- | Low -- °F
--% Chance of Precip.
Yesterday
High -- | Low -- °F
Precip. -- in
10:02 AM 3:52 PM
Waxing Crescent, 12% visible
Pressure 29.64 in
Visibility 10.0 miles
Clouds Overcast 6500 ft
Windchill 30 °F
Dew Point 30 °F
Humidity 89%
Rainfall 0.04 in
Snow Depth Not available.
UV 0 out of 12
Pollen Not available.
Air Quality Not available.
Flu Activity Not available.
METAR PAWD 250153Z AUTO 28003KT 10SM OVC065 01/M01 A2964 RMK AO2 SLP035 T00061011 TSNO

More Conditions Fewer Conditions

Pressure 29.64 in
Visibility 10.0 miles
Clouds Overcast 6500 ft
Windchill 30 °F
Dew Point 30 °F
Humidity 89%
Rainfall 0.04 in
Snow Depth Not available.
UV 0 out of 12
Pollen Not available.
Air Quality Not available.
Flu Activity Not available.
METAR PAWD 250153Z AUTO 28003KT 10SM OVC065 01/M01 A2964 RMK AO2 SLP035 T00061011 TSNO

More Conditions Fewer Conditions

10-Day Weather Forecast

Almanac

Astronomy

Dec. 24, 2014 Rise Set
Actual Time
Civil Twilight
Nautical Twilight
Astronomical Twilight
Moon
Length of Visible Light
Length of Day
Tomorrow will be .
, % of the Moon is Illuminated

Today's Extremes

State Highs State Lows

Community

WunderPhotos

Upload Photos

1,780,215 photos uploaded!

WunderBlogs® & News

Nearby

Air Quality

  Air Quality AQ Index Pollutant
Not available.

Snow Depth

Station Depth Elevation

Earthquake Activity

City Distance Mag. Time & Date
Minimum magnitude displayed is 2.5.

Coastal Water Temperatures

Place Temperature

Nearby Weather Stations